Time;durP1;ratioP1;P1;durP2;ratioP2;P2;SDS_P1;SDS_P2;PMS_P1;PMS_P2;Temp;Humidity;BMP_temperature;BMP_pressure;BME280_temperature;BME280_humidity;BME280_pressure;Samples;Min_cycle;Max_cycle;Signal;HPM_P1;HPM_P2
2022/07/05 00:02:23;;;;;;;0.52;0.10;;;;;;;7.42;100.00;101651.06;5055892;28;20473;-53
2022/07/05 00:05:16;;;;;;;0.10;0.00;;;;;;;7.38;100.00;101652.31;5041847;28;20025;-50
2022/07/05 00:08:08;;;;;;;0.10;0.10;;;;;;;7.38;100.00;101652.31;5064268;28;20040;-52
2022/07/05 00:11:00;;;;;;;2.05;0.10;;;;;;;7.36;100.00;101646.34;5064518;28;20093;-53
2022/07/05 00:13:52;;;;;;;0.10;0.00;;;;;;;7.36;100.00;101649.81;5062210;28;20068;-55
2022/07/05 00:16:44;;;;;;;0.20;0.20;;;;;;;7.37;100.00;101650.66;5058309;28;20035;-51
2022/07/05 00:19:47;;;;;;;3.38;0.50;;;;;;;7.35;100.00;101652.59;5052058;28;20155;-52
2022/07/05 00:22:39;;;;;;;3.20;0.00;;;;;;;7.30;100.00;101660.91;5063274;28;20036;-51
2022/07/05 00:25:31;;;;;;;0.50;0.17;;;;;;;7.27;100.00;101655.94;5071495;28;20465;-51
2022/07/05 00:28:24;;;;;;;0.80;0.47;;;;;;;7.22;100.00;101653.72;5045014;28;20028;-53
2022/07/05 00:31:16;;;;;;;0.03;0.00;;;;;;;7.20;100.00;101657.47;5041030;28;20029;-55
2022/07/05 00:34:08;;;;;;;0.30;0.25;;;;;;;7.18;100.00;101656.78;5069883;28;20060;-54
2022/07/05 00:37:01;;;;;;;0.50;0.08;;;;;;;7.15;100.00;101662.31;5042738;28;20670;-52
2022/07/05 00:39:53;;;;;;;0.10;0.10;;;;;;;7.11;100.00;101667.06;5051456;28;20064;-54
2022/07/05 00:42:45;;;;;;;0.15;0.00;;;;;;;7.10;100.00;101670.69;5064544;28;20102;-53
2022/07/05 00:45:37;;;;;;;2.60;0.52;;;;;;;7.07;100.00;101681.47;5061804;28;20039;-53
2022/07/05 00:48:29;;;;;;;0.47;0.10;;;;;;;7.01;100.00;101671.50;5061897;28;20048;-54
2022/07/05 00:51:21;;;;;;;2.63;0.45;;;;;;;6.96;100.00;101674.53;5068027;28;20047;-51
2022/07/05 00:54:14;;;;;;;1.67;0.35;;;;;;;6.91;100.00;101670.66;5069379;28;20034;-53
2022/07/05 00:57:07;;;;;;;0.13;0.03;;;;;;;6.86;100.00;101662.31;5053218;28;20467;-53
2022/07/05 00:59:59;;;;;;;0.20;0.10;;;;;;;6.83;100.00;101659.97;5062789;28;20031;-52
2022/07/05 01:02:51;;;;;;;0.57;0.20;;;;;;;6.76;100.00;101663.16;5068082;28;20456;-50
2022/07/05 01:05:44;;;;;;;0.35;0.10;;;;;;;6.69;100.00;101654.13;5051464;28;20072;-49
2022/07/05 01:08:36;;;;;;;0.28;0.00;;;;;;;6.64;100.00;101660.78;5058933;28;20056;-50
2022/07/05 01:11:29;;;;;;;0.10;0.10;;;;;;;6.59;100.00;101653.28;5060900;28;20036;-51
2022/07/05 01:14:24;;;;;;;0.20;0.13;;;;;;;6.53;100.00;101659.94;5044549;28;20036;-51
2022/07/05 01:17:17;;;;;;;0.85;0.10;;;;;;;6.47;100.00;101660.47;5053342;28;20111;-48
2022/07/05 01:20:09;;;;;;;0.10;0.00;;;;;;;6.43;100.00;101660.84;5059285;28;20043;-49
2022/07/05 01:23:12;;;;;;;1.38;0.20;;;;;;;6.37;100.00;101664.03;5037307;28;20101;-52
2022/07/05 01:26:15;;;;;;;0.52;0.10;;;;;;;6.30;100.00;101664.59;5047725;28;20032;-49
2022/07/05 01:29:07;;;;;;;0.00;0.00;;;;;;;6.26;100.00;101665.00;5043779;28;20127;-49
2022/07/05 01:32:01;;;;;;;1.37;0.10;;;;;;;6.22;100.00;101666.22;5030104;28;20155;-49
2022/07/05 01:34:56;;;;;;;0.77;0.17;;;;;;;6.18;100.00;101668.28;5053173;28;20239;-51
2022/07/05 01:37:48;;;;;;;0.00;0.00;;;;;;;6.16;100.00;101670.22;5045182;28;20060;-49
2022/07/05 01:40:41;;;;;;;1.17;0.03;;;;;;;6.15;100.00;101671.19;5057260;28;20390;-51
2022/07/05 01:43:33;;;;;;;2.08;0.28;;;;;;;6.12;100.00;101668.81;5056481;28;20032;-49
2022/07/05 01:46:29;;;;;;;1.58;0.05;;;;;;;6.08;100.00;101672.69;5043955;28;20050;-49
2022/07/05 01:49:24;;;;;;;0.30;0.00;;;;;;;6.05;100.00;101672.94;5049472;28;20444;-48
2022/07/05 01:52:19;;;;;;;0.17;0.10;;;;;;;6.00;100.00;101678.59;5067986;28;20039;-51
2022/07/05 01:55:12;;;;;;;0.38;0.13;;;;;;;5.95;100.00;101669.44;5049378;28;20035;-55
2022/07/05 01:58:05;;;;;;;0.00;0.00;;;;;;;5.85;100.00;101666.72;5050603;28;20438;-48
2022/07/05 02:01:01;;;;;;;1.27;0.95;;;;;;;5.77;100.00;101675.28;5055722;28;20119;-50
2022/07/05 02:03:54;;;;;;;0.20;0.20;;;;;;;5.75;100.00;101677.19;5060202;28;20036;-50
2022/07/05 02:06:47;;;;;;;0.03;0.03;;;;;;;5.72;100.00;101685.34;5061788;28;20086;-51
2022/07/05 02:09:40;;;;;;;3.67;0.10;;;;;;;5.71;100.00;101680.25;5061671;28;20075;-53
2022/07/05 02:12:32;;;;;;;0.15;0.00;;;;;;;5.67;100.00;101679.66;5036977;28;20041;-53
2022/07/05 02:15:24;;;;;;;0.08;0.08;;;;;;;5.65;100.00;101685.06;5069247;28;20124;-53
2022/07/05 02:18:17;;;;;;;0.00;0.00;;;;;;;5.60;100.00;101683.75;5061541;28;20044;-50
2022/07/05 02:21:09;;;;;;;0.03;0.03;;;;;;;5.53;100.00;101683.44;5056923;28;20089;-50
2022/07/05 02:24:02;;;;;;;0.85;0.47;;;;;;;5.46;100.00;101682.28;5063640;28;20112;-54
2022/07/05 02:26:54;;;;;;;0.03;0.03;;;;;;;5.45;100.00;101684.09;5061196;28;20047;-54
2022/07/05 02:29:46;;;;;;;0.77;0.43;;;;;;;5.41;100.00;101682.66;5054490;28;20453;-52
2022/07/05 02:32:38;;;;;;;0.25;0.00;;;;;;;5.37;100.00;101675.16;5063240;28;20396;-51
2022/07/05 02:35:30;;;;;;;2.22;0.08;;;;;;;5.32;100.00;101683.44;5058612;28;20032;-49
2022/07/05 02:38:23;;;;;;;0.08;0.08;;;;;;;5.25;100.00;101679.66;5039591;28;20437;-52
2022/07/05 02:41:16;;;;;;;0.08;0.08;;;;;;;5.19;100.00;101674.91;5040723;28;20427;-49
2022/07/05 02:44:09;;;;;;;0.52;0.32;;;;;;;5.18;100.00;101681.94;5063605;28;20041;-53
2022/07/05 02:47:01;;;;;;;0.32;0.05;;;;;;;5.16;100.00;101685.66;5073807;28;20539;-48
2022/07/05 02:49:54;;;;;;;0.38;0.03;;;;;;;5.13;100.00;101685.91;5038903;28;20405;-53
2022/07/05 02:52:46;;;;;;;0.00;0.00;;;;;;;5.07;100.00;101682.00;5065536;28;20480;-53
2022/07/05 02:55:38;;;;;;;0.38;0.10;;;;;;;5.00;100.00;101686.91;5050551;28;20037;-51
2022/07/05 02:58:31;;;;;;;0.20;0.00;;;;;;;4.97;100.00;101681.09;5045132;28;20052;-51
2022/07/05 03:01:23;;;;;;;0.00;0.00;;;;;;;4.95;100.00;101680.38;5064700;28;20028;-53
2022/07/05 03:04:15;;;;;;;0.75;0.20;;;;;;;4.88;100.00;101682.69;5052086;28;20041;-51
2022/07/05 03:07:08;;;;;;;0.13;0.00;;;;;;;4.85;100.00;101682.91;5040092;28;20032;-53
2022/07/05 03:10:00;;;;;;;0.00;0.00;;;;;;;4.87;100.00;101685.41;5065051;28;20033;-50
2022/07/05 03:12:53;;;;;;;1.65;0.10;;;;;;;4.81;100.00;101682.31;5032421;28;20102;-49
2022/07/05 03:15:45;;;;;;;2.17;0.10;;;;;;;4.78;100.00;101685.22;5049780;28;20028;-54
2022/07/05 03:18:37;;;;;;;0.30;0.00;;;;;;;4.76;100.00;101681.84;5047840;28;20131;-51
2022/07/05 03:21:30;;;;;;;1.08;0.10;;;;;;;4.78;100.00;101681.75;5061080;28;20037;-55
2022/07/05 03:24:22;;;;;;;0.20;0.03;;;;;;;4.76;100.00;101686.28;5067217;28;20400;-48
2022/07/05 03:27:15;;;;;;;0.52;0.10;;;;;;;4.74;100.00;101696.91;5065285;28;20033;-53
2022/07/05 03:30:07;;;;;;;0.00;0.00;;;;;;;4.72;100.00;101688.31;5062658;28;20115;-53
2022/07/05 03:32:59;;;;;;;0.15;0.15;;;;;;;4.68;100.00;101693.94;5074570;28;20032;-55
2022/07/05 03:35:51;;;;;;;0.10;0.10;;;;;;;4.67;100.00;101687.00;5066267;28;20119;-50
2022/07/05 03:38:44;;;;;;;0.35;0.20;;;;;;;4.68;100.00;101696.59;5058694;28;20049;-52
2022/07/05 03:41:36;;;;;;;0.00;0.00;;;;;;;4.64;100.00;101695.97;5043636;28;20037;-53
2022/07/05 03:44:31;;;;;;;0.20;0.00;;;;;;;4.59;100.00;101696.38;5069581;28;20472;-51
2022/07/05 03:47:24;;;;;;;0.45;0.20;;;;;;;4.56;100.00;101706.25;5044963;28;20044;-51
2022/07/05 03:50:16;;;;;;;0.43;0.00;;;;;;;4.54;100.00;101700.28;5058917;28;20038;-54
2022/07/05 03:53:08;;;;;;;1.10;0.20;;;;;;;4.53;100.00;101709.13;5063174;28;20153;-49
2022/07/05 03:56:00;;;;;;;0.38;0.38;;;;;;;4.53;100.00;101704.72;5050827;28;20033;-49
2022/07/05 03:58:53;;;;;;;0.57;0.20;;;;;;;4.52;100.00;101705.69;5063633;28;20035;-48
2022/07/05 04:01:46;;;;;;;0.35;0.10;;;;;;;4.53;100.00;101701.25;5050180;28;20041;-47
2022/07/05 04:04:38;;;;;;;0.30;0.30;;;;;;;4.51;100.00;101703.16;5053722;28;20067;-53
2022/07/05 04:07:30;;;;;;;3.85;0.10;;;;;;;4.50;100.00;101698.88;5026951;28;20413;-49
2022/07/05 04:10:33;;;;;;;0.32;0.32;;;;;;;4.43;100.00;101697.69;5047875;28;20071;-53
2022/07/05 04:13:25;;;;;;;2.83;0.10;;;;;;;4.36;100.00;101713.06;5066729;28;20553;-54
2022/07/05 04:16:17;;;;;;;0.45;0.00;;;;;;;4.35;100.00;101709.63;5044718;28;20041;-51
2022/07/05 04:19:10;;;;;;;0.43;0.22;;;;;;;4.33;100.00;101716.78;5034977;28;20033;-52
2022/07/05 04:22:02;;;;;;;0.00;0.00;;;;;;;4.36;100.00;101719.19;5050949;28;20032;-54
2022/07/05 04:27:59;;;;;;;0.17;0.17;;;;;;;4.45;100.00;101724.66;5069664;28;20139;-48
2022/07/05 04:30:51;;;;;;;0.90;0.05;;;;;;;4.47;100.00;101733.28;5032653;28;20116;-54
2022/07/05 04:33:43;;;;;;;0.30;0.30;;;;;;;4.51;100.00;101738.13;5057002;28;20032;-50
2022/07/05 04:36:36;;;;;;;0.10;0.10;;;;;;;4.60;100.00;101736.59;5044426;28;20480;-54
2022/07/05 04:39:29;;;;;;;0.13;0.13;;;;;;;4.60;100.00;101741.84;5037741;28;20036;-50
2022/07/05 04:42:21;;;;;;;0.20;0.10;;;;;;;4.59;100.00;101741.03;5061497;28;20029;-51
2022/07/05 04:45:14;;;;;;;0.22;0.00;;;;;;;4.58;100.00;101733.25;5053106;28;20032;-49
2022/07/05 04:48:06;;;;;;;2.00;0.20;;;;;;;4.66;100.00;101735.28;5049046;28;20090;-53
2022/07/05 04:50:59;;;;;;;0.52;0.10;;;;;;;4.67;100.00;101739.56;5067354;28;20083;-54
2022/07/05 04:53:51;;;;;;;0.43;0.15;;;;;;;4.71;100.00;101743.63;5047803;28;20037;-51
2022/07/05 04:56:44;;;;;;;0.65;0.10;;;;;;;4.75;100.00;101745.88;5064163;28;20067;-54
2022/07/05 04:59:36;;;;;;;0.47;0.00;;;;;;;4.76;100.00;101747.56;5039858;28;20048;-51
2022/07/05 05:02:28;;;;;;;0.15;0.10;;;;;;;4.85;100.00;101756.47;5060598;28;20366;-54
2022/07/05 05:05:21;;;;;;;0.65;0.32;;;;;;;4.96;100.00;101748.59;5056016;28;20147;-52
2022/07/05 05:08:14;;;;;;;1.95;0.30;;;;;;;5.05;100.00;101751.44;5039220;28;20025;-54
2022/07/05 05:11:06;;;;;;;1.20;0.13;;;;;;;5.13;100.00;101744.59;5061368;28;20029;-53
2022/07/05 05:13:58;;;;;;;0.77;0.40;;;;;;;5.26;100.00;101754.94;5068545;28;20044;-51
2022/07/05 05:16:51;;;;;;;2.63;0.20;;;;;;;5.37;100.00;101752.28;5044343;28;20506;-55
2022/07/05 05:19:44;;;;;;;0.50;0.10;;;;;;;5.40;100.00;101762.56;5061409;28;20097;-51
2022/07/05 05:22:36;;;;;;;0.08;0.05;;;;;;;5.52;100.00;101765.13;5039890;28;20028;-55
2022/07/05 05:25:30;;;;;;;1.48;0.20;;;;;;;5.60;100.00;101765.31;5051449;28;20059;-52
2022/07/05 05:28:22;;;;;;;0.10;0.10;;;;;;;5.77;100.00;101763.94;5057149;28;20035;-54
2022/07/05 05:31:15;;;;;;;0.00;0.00;;;;;;;5.85;100.00;101767.56;5043063;28;20112;-54
2022/07/05 05:34:08;;;;;;;0.25;0.15;;;;;;;5.84;100.00;101767.72;5054850;28;20496;-52
2022/07/05 05:37:00;;;;;;;0.10;0.10;;;;;;;5.87;100.00;101765.66;5050430;28;20032;-50
2022/07/05 05:39:52;;;;;;;0.25;0.17;;;;;;;5.95;100.00;101767.69;5049611;28;20124;-54
2022/07/05 05:42:44;;;;;;;0.10;0.10;;;;;;;6.09;100.00;101771.75;5054992;28;20269;-54
2022/07/05 05:45:37;;;;;;;0.10;0.00;;;;;;;6.30;100.00;101769.97;5057144;28;20032;-51
2022/07/05 05:48:29;;;;;;;0.00;0.00;;;;;;;6.42;100.00;101770.69;5040676;28;20064;-54
2022/07/05 05:51:22;;;;;;;0.20;0.00;;;;;;;6.59;100.00;101771.88;5037900;28;20052;-55
2022/07/05 05:54:14;;;;;;;0.45;0.25;;;;;;;6.65;100.00;101770.50;5038187;28;20045;-54
2022/07/05 05:57:06;;;;;;;0.82;0.10;;;;;;;6.88;100.00;101771.13;5051286;28;20124;-55
2022/07/05 05:59:58;;;;;;;0.20;0.10;;;;;;;7.02;100.00;101783.91;5052703;28;20766;-54
2022/07/05 06:02:51;;;;;;;0.20;0.20;;;;;;;7.15;100.00;101784.50;5051618;28;20207;-53
2022/07/05 06:05:43;;;;;;;0.60;0.15;;;;;;;7.36;100.00;101783.56;5053945;28;20060;-52
2022/07/05 06:08:36;;;;;;;2.00;0.73;;;;;;;7.47;100.00;101786.06;5057660;28;20503;-56
2022/07/05 06:11:28;;;;;;;0.20;0.10;;;;;;;7.66;100.00;101793.13;5053597;28;20092;-51
2022/07/05 06:14:20;;;;;;;0.70;0.03;;;;;;;7.86;100.00;101793.94;5058101;28;20071;-53
2022/07/05 06:17:13;;;;;;;0.20;0.05;;;;;;;8.08;100.00;101793.63;5041675;28;20037;-55
2022/07/05 06:20:05;;;;;;;3.35;0.10;;;;;;;8.28;100.00;101788.28;5058989;28;20036;-56
2022/07/05 06:22:58;;;;;;;3.58;0.40;;;;;;;8.46;100.00;101791.88;5053730;28;20036;-55
2022/07/05 06:25:50;;;;;;;0.35;0.00;;;;;;;8.65;100.00;101793.63;5065582;28;20373;-55
2022/07/05 06:28:43;;;;;;;4.88;0.43;;;;;;;8.91;100.00;101793.75;5058388;28;20029;-51
2022/07/05 07:55:23;;;;;;;0.82;0.20;;;;;;;15.16;100.00;101742.88;5061307;28;20046;-59
2022/07/05 07:58:15;;;;;;;0.35;0.00;;;;;;;15.18;100.00;101743.47;5024995;28;20466;-49
2022/07/05 08:01:11;;;;;;;1.15;0.20;;;;;;;15.18;100.00;101743.47;5053304;28;20033;-54
2022/07/05 08:04:03;;;;;;;1.05;0.20;;;;;;;15.41;100.00;101752.16;5019017;28;20499;-46
2022/07/05 08:06:56;;;;;;;2.15;0.00;;;;;;;15.57;100.00;101747.56;5061432;28;20142;-49
2022/07/05 08:09:49;;;;;;;2.78;0.10;;;;;;;15.77;100.00;101747.72;5051163;28;20036;-57
2022/07/05 08:12:42;;;;;;;1.73;0.73;;;;;;;15.74;100.00;101754.28;5059422;28;20440;-56
2022/07/05 08:15:34;;;;;;;1.45;0.10;;;;;;;15.59;100.00;101757.03;5044654;28;20465;-48
2022/07/05 08:21:31;;;;;;;0.40;0.10;;;;;;;15.51;100.00;101753.66;5041344;28;20036;-57
2022/07/05 08:24:24;;;;;;;1.17;0.10;;;;;;;15.66;100.00;101763.25;5042771;28;20548;-53
2022/07/05 08:27:16;;;;;;;0.20;0.00;;;;;;;15.85;100.00;101760.94;5057259;28;20029;-47
2022/07/05 08:30:08;;;;;;;0.93;0.10;;;;;;;15.81;100.00;101755.16;5058093;28;20016;-56
2022/07/05 08:33:01;;;;;;;1.85;0.10;;;;;;;16.13;100.00;101752.91;5048609;28;20119;-52
2022/07/05 08:35:53;;;;;;;1.38;0.40;;;;;;;16.13;100.00;101752.91;5044184;28;20525;-57
2022/07/05 08:38:45;;;;;;;0.00;0.00;;;;;;;16.27;100.00;101753.81;5056424;28;20044;-52
2022/07/05 08:41:41;;;;;;;2.15;0.80;;;;;;;16.33;100.00;101756.50;5053421;28;20040;-49
2022/07/05 08:44:38;;;;;;;0.63;0.10;;;;;;;16.27;100.00;101749.28;5044334;28;20029;-59
2022/07/05 08:47:32;;;;;;;1.50;0.25;;;;;;;16.08;100.00;101766.03;5058182;28;20115;-52
2022/07/05 08:50:26;;;;;;;1.10;0.08;;;;;;;16.13;100.00;101768.94;5060408;28;20033;-59
2022/07/05 08:53:18;;;;;;;0.30;0.10;;;;;;;16.53;100.00;101753.13;5052083;28;20024;-61
2022/07/05 08:56:11;;;;;;;0.73;0.13;;;;;;;16.86;100.00;101745.25;5030154;28;20028;-56
2022/07/05 08:59:03;;;;;;;1.42;0.00;;;;;;;16.83;100.00;101748.34;5058691;28;20075;-55
2022/07/05 09:01:57;;;;;;;2.00;0.10;;;;;;;16.46;100.00;101750.41;5045762;28;20377;-60
2022/07/05 09:04:52;;;;;;;0.45;0.20;;;;;;;16.74;100.00;101739.59;5038382;28;20060;-60
2022/07/05 09:07:52;;;;;;;1.30;0.10;;;;;;;16.85;100.00;101740.91;5038833;28;20078;-58
2022/07/05 09:10:49;;;;;;;0.10;0.00;;;;;;;16.85;100.00;101745.44;5040325;28;20518;-49
2022/07/05 09:13:42;;;;;;;0.82;0.00;;;;;;;16.91;100.00;101741.94;5061645;28;20032;-63
2022/07/05 09:16:35;;;;;;;3.42;0.75;;;;;;;17.25;100.00;101732.94;5031958;28;20546;-57
2022/07/05 09:19:37;;;;;;;2.53;0.68;;;;;;;17.53;100.00;101734.59;5060970;28;20094;-52
2022/07/05 09:22:29;;;;;;;1.27;0.25;;;;;;;17.55;100.00;101741.41;5034594;28;20035;-56
2022/07/05 09:25:33;;;;;;;4.03;0.13;;;;;;;17.77;100.00;101747.38;5029877;28;20119;-58
2022/07/05 09:28:27;;;;;;;0.52;0.00;;;;;;;18.04;100.00;101747.34;5046345;28;20039;-50
2022/07/05 09:31:30;;;;;;;1.67;0.10;;;;;;;17.94;100.00;101745.13;5062657;28;20029;-48
2022/07/05 09:34:27;;;;;;;2.80;0.20;;;;;;;17.77;100.00;101743.88;5038755;28;20440;-56
2022/07/05 09:37:19;;;;;;;11.80;1.42;;;;;;;17.70;100.00;101741.19;5035133;28;20024;-57
2022/07/05 09:40:12;;;;;;;3.90;0.10;;;;;;;17.90;100.00;101749.25;5038262;28;20164;-51
2022/07/05 09:43:15;;;;;;;1.48;0.22;;;;;;;17.69;100.00;101746.78;5030717;28;20032;-61
2022/07/05 09:46:13;;;;;;;0.65;0.00;;;;;;;17.60;100.00;101738.09;5056123;28;20060;-47
2022/07/05 09:49:09;;;;;;;66.60;6.50;;;;;;;17.58;100.00;101741.00;5032697;28;20083;-50
2022/07/05 09:52:05;;;;;;;2.30;0.30;;;;;;;18.14;100.00;101737.00;5036446;28;20055;-56
2022/07/05 09:55:09;;;;;;;4.45;0.38;;;;;;;18.26;100.00;101737.19;5047089;28;20032;-58
2022/07/05 09:58:02;;;;;;;1.65;0.10;;;;;;;18.75;100.00;101735.78;5044923;28;20028;-60
2022/07/05 10:00:54;;;;;;;0.15;0.00;;;;;;;19.02;100.00;101746.38;5012772;28;20119;-58
2022/07/05 10:03:58;;;;;;;1.45;0.13;;;;;;;18.84;100.00;101744.41;5026748;28;20032;-56
2022/07/05 10:06:51;;;;;;;3.58;0.93;;;;;;;18.49;100.00;101748.25;5031450;28;20073;-57
2022/07/05 10:09:44;;;;;;;0.35;0.35;;;;;;;18.17;100.00;101750.00;5031163;28;20106;-59
2022/07/05 10:12:38;;;;;;;0.80;0.00;;;;;;;18.45;100.00;101754.28;5033647;28;20033;-59
2022/07/05 10:15:35;;;;;;;2.80;0.10;;;;;;;18.81;100.00;101740.28;5065320;28;20040;-56
2022/07/05 10:18:32;;;;;;;0.65;0.00;;;;;;;18.79;100.00;101752.28;5028809;28;20025;-61
2022/07/05 10:21:30;;;;;;;0.55;0.20;;;;;;;18.88;100.00;101737.56;5058488;28;20125;-61
2022/07/05 10:24:24;;;;;;;1.40;0.65;;;;;;;19.66;100.00;101742.56;5037096;28;20032;-51
2022/07/05 10:27:17;;;;;;;0.40;0.00;;;;;;;19.34;100.00;101747.19;5044353;28;20033;-64
2022/07/05 10:30:10;;;;;;;0.30;0.10;;;;;;;19.20;100.00;101746.47;5053651;28;20033;-50
2022/07/05 10:33:03;;;;;;;1.65;0.03;;;;;;;18.87;100.00;101743.97;5038387;28;20060;-55
2022/07/05 10:35:56;;;;;;;2.65;0.00;;;;;;;18.84;100.00;101739.84;5034767;28;20029;-49
2022/07/05 10:38:53;;;;;;;1.30;0.00;;;;;;;19.03;100.00;101748.84;5025572;28;20081;-62
2022/07/05 10:41:48;;;;;;;0.73;0.13;;;;;;;19.41;100.00;101745.25;5030358;28;20029;-65
2022/07/05 10:44:44;;;;;;;0.40;0.00;;;;;;;19.71;100.00;101750.03;5047111;28;20044;-56
2022/07/05 10:47:37;;;;;;;1.52;0.10;;;;;;;19.53;100.00;101756.16;5041762;28;20342;-55
2022/07/05 10:50:30;;;;;;;0.95;0.20;;;;;;;19.34;100.00;101755.28;5050684;28;20108;-65
2022/07/05 10:53:23;;;;;;;1.23;0.55;;;;;;;19.17;100.00;101750.41;5026085;28;20032;-61
2022/07/05 10:56:26;;;;;;;1.58;0.03;;;;;;;19.23;100.00;101748.69;5048773;28;20036;-57
2022/07/05 10:59:23;;;;;;;1.65;0.00;;;;;;;19.69;100.00;101757.50;5035939;28;20045;-55
2022/07/05 11:02:26;;;;;;;1.73;0.00;;;;;;;19.67;100.00;101757.72;5063635;28;20040;-53
2022/07/05 11:05:24;;;;;;;0.80;0.00;;;;;;;19.18;100.00;101754.75;5055507;28;20028;-61
2022/07/05 11:08:17;;;;;;;0.70;0.00;;;;;;;19.25;100.00;101756.56;5037042;28;20028;-61
2022/07/05 11:11:21;;;;;;;3.17;0.13;;;;;;;19.53;100.00;101746.19;5054821;28;20033;-55
2022/07/05 11:14:25;;;;;;;0.40;0.03;;;;;;;20.01;100.00;101750.97;5043334;28;20029;-62
2022/07/05 11:17:30;;;;;;;0.68;0.00;;;;;;;19.74;100.00;101750.41;5047232;28;20203;-52
2022/07/05 11:20:36;;;;;;;0.57;0.40;;;;;;;19.22;100.00;101746.25;5042771;28;20078;-58
2022/07/05 11:23:34;;;;;;;0.75;0.10;;;;;;;18.95;100.00;101744.56;5042680;28;20060;-57
2022/07/05 11:26:27;;;;;;;1.10;0.00;;;;;;;19.32;100.00;101752.78;5043198;28;20468;-55
2022/07/05 11:29:30;;;;;;;0.60;0.20;;;;;;;19.69;100.00;101752.91;5054793;28;20033;-62
2022/07/05 11:32:23;;;;;;;2.53;0.10;;;;;;;19.80;100.00;101741.44;5032744;28;20047;-62
2022/07/05 11:35:28;;;;;;;0.52;0.00;;;;;;;20.31;100.00;101730.56;5062891;28;20576;-51
2022/07/05 11:38:22;;;;;;;0.35;0.00;;;;;;;20.13;100.00;101742.16;5036181;28;20029;-50
2022/07/05 11:41:25;;;;;;;3.40;0.08;;;;;;;20.64;100.00;101739.06;5029805;28;20166;-63
2022/07/05 11:44:19;;;;;;;2.83;0.10;;;;;;;20.79;100.00;101733.28;5047942;28;20048;-63
2022/07/05 11:47:22;;;;;;;0.88;0.00;;;;;;;20.81;100.00;101743.84;5053269;28;20067;-58
2022/07/05 11:50:15;;;;;;;3.10;0.05;;;;;;;21.03;100.00;101726.09;5061123;28;20115;-56
2022/07/05 11:53:11;;;;;;;0.43;0.00;;;;;;;21.18;100.00;101744.53;5053799;28;20037;-60
2022/07/05 11:56:06;;;;;;;1.27;0.00;;;;;;;20.80;100.00;101748.38;5063887;28;20032;-55
2022/07/05 11:58:58;;;;;;;0.52;0.00;;;;;;;20.22;100.00;101751.59;5055583;28;20444;-50
2022/07/05 12:02:01;;;;;;;2.08;0.00;;;;;;;20.12;100.00;101748.59;5037569;28;20538;-54
2022/07/05 12:04:57;;;;;;;1.65;0.30;;;;;;;20.16;100.00;101753.31;5062598;28;20123;-49
2022/07/05 12:07:56;;;;;;;0.00;0.00;;;;;;;20.34;100.00;101748.94;5054959;28;20041;-62
2022/07/05 12:14:03;;;;;;;0.10;0.00;;;;;;;20.52;100.00;101748.94;5049639;28;20040;-51
2022/07/05 12:16:55;;;;;;;2.17;0.00;;;;;;;20.97;100.00;101745.06;5058323;28;20029;-49
2022/07/05 12:19:59;;;;;;;3.70;0.40;;;;;;;20.94;100.00;101742.84;5032987;28;20037;-49
2022/07/05 12:22:54;;;;;;;0.73;0.28;;;;;;;20.51;100.00;101744.59;5054082;28;20090;-50
2022/07/05 12:25:47;;;;;;;0.20;0.00;;;;;;;20.23;100.00;101743.25;5037975;28;20467;-53
2022/07/05 12:28:40;;;;;;;1.52;0.00;;;;;;;20.30;100.00;101739.69;5040383;28;20049;-52
2022/07/05 12:31:34;;;;;;;1.25;0.00;;;;;;;20.51;100.00;101744.59;5057299;28;20059;-49
2022/07/05 12:34:34;;;;;;;1.75;0.00;;;;;;;20.68;100.00;101734.06;5038638;28;20029;-62
2022/07/05 12:37:31;;;;;;;0.00;0.00;;;;;;;21.30;100.00;101731.91;5065722;28;20398;-62
2022/07/05 12:40:29;;;;;;;0.50;0.00;;;;;;;21.58;100.00;101735.00;5044001;28;20043;-48
2022/07/05 12:43:25;;;;;;;1.08;0.10;;;;;;;21.05;100.00;101733.94;5057397;28;20045;-58
2022/07/05 12:46:18;;;;;;;0.43;0.00;;;;;;;21.25;100.00;101725.56;5046013;28;20083;-43
2022/07/05 12:49:11;;;;;;;0.22;0.00;;;;;;;21.35;100.00;101732.03;5061550;28;20370;-54
2022/07/05 12:52:11;;;;;;;1.27;0.03;;;;;;;21.30;100.00;101734.59;5041584;28;20028;-58
2022/07/05 12:58:18;;;;;;;1.75;0.13;;;;;;;21.31;100.00;101738.09;5029545;28;20047;-51
2022/07/05 13:01:21;;;;;;;6.30;0.05;;;;;;;21.58;100.00;101732.28;5038382;28;20029;-59
2022/07/05 13:04:25;;;;;;;0.32;0.30;;;;;;;21.66;100.00;101729.25;5036420;28;20028;-53
2022/07/05 13:07:18;;;;;;;0.40;0.00;;;;;;;21.27;100.00;101728.81;5058816;28;20033;-58
2022/07/05 13:10:22;;;;;;;2.85;0.00;;;;;;;21.30;100.00;101725.69;5042153;28;20036;-55
2022/07/05 13:13:16;;;;;;;0.00;0.00;;;;;;;20.59;100.00;101730.84;5037699;28;20534;-52
2022/07/05 13:16:10;;;;;;;0.52;0.00;;;;;;;20.56;100.00;101728.59;5060748;28;20363;-65
2022/07/05 13:19:02;;;;;;;0.13;0.00;;;;;;;20.60;100.00;101726.28;5062005;28;20059;-62
2022/07/05 13:21:55;;;;;;;1.08;0.65;;;;;;;20.85;100.00;101731.53;5050650;28;20386;-49
2022/07/05 13:24:47;;;;;;;0.35;0.05;;;;;;;20.76;100.00;101741.00;5061014;28;20032;-48
2022/07/05 13:27:52;;;;;;;1.13;0.32;;;;;;;20.64;100.00;101736.38;5043793;28;20032;-54
2022/07/05 13:30:45;;;;;;;14.43;1.05;;;;;;;20.48;100.00;101739.66;5054334;28;20036;-51
2022/07/05 13:33:37;;;;;;;0.13;0.10;;;;;;;20.57;100.00;101742.91;5060469;28;20041;-50
2022/07/05 13:36:29;;;;;;;2.72;0.28;;;;;;;20.50;100.00;101745.66;5062340;28;20486;-49
2022/07/05 13:39:21;;;;;;;1.45;0.00;;;;;;;20.60;100.00;101742.44;5057906;28;20554;-58
2022/07/05 13:42:15;;;;;;;0.22;0.00;;;;;;;20.86;100.00;101733.19;5060983;28;20115;-55
2022/07/05 13:45:08;;;;;;;1.35;0.55;;;;;;;21.09;100.00;101738.66;5071539;28;20093;-51
2022/07/05 13:48:11;;;;;;;0.43;0.40;;;;;;;20.72;100.00;101739.81;5056447;28;20040;-54
2022/07/05 13:51:03;;;;;;;1.65;0.65;;;;;;;20.72;100.00;101745.19;5042143;28;20392;-54
2022/07/05 13:53:55;;;;;;;0.10;0.00;;;;;;;20.59;100.00;101746.19;5063463;28;20345;-53
2022/07/05 13:56:48;;;;;;;1.38;0.20;;;;;;;20.24;100.00;101747.63;5048925;28;20175;-59
2022/07/05 13:59:40;;;;;;;1.83;1.15;;;;;;;20.05;100.00;101756.72;5058029;28;20111;-46
2022/07/05 14:02:32;;;;;;;0.45;0.08;;;;;;;19.90;100.00;101745.50;5061253;28;20437;-46
2022/07/05 14:05:24;;;;;;;0.50;0.00;;;;;;;20.00;100.00;101748.50;5063785;28;20106;-46
2022/07/05 14:08:21;;;;;;;1.77;0.00;;;;;;;19.84;100.00;101749.91;5061659;28;20032;-46
2022/07/05 14:11:13;;;;;;;0.00;0.00;;;;;;;19.75;100.00;101757.44;5045546;28;20115;-52
2022/07/05 14:14:06;;;;;;;3.45;1.00;;;;;;;19.65;100.00;101753.56;5045920;28;20478;-59
2022/07/05 14:16:58;;;;;;;1.60;0.15;;;;;;;19.56;100.00;101747.63;5065434;28;20033;-53
2022/07/05 14:20:00;;;;;;;0.20;0.00;;;;;;;19.71;100.00;101742.78;5034184;28;20169;-51
2022/07/05 14:23:03;;;;;;;0.00;0.00;;;;;;;19.95;100.00;101751.84;5051033;28;20041;-58
2022/07/05 14:25:56;;;;;;;0.00;0.00;;;;;;;20.05;100.00;101736.00;5069379;28;20032;-55
2022/07/05 14:28:48;;;;;;;0.28;0.10;;;;;;;20.12;100.00;101741.31;5054539;28;20056;-59
2022/07/05 14:31:41;;;;;;;1.15;0.00;;;;;;;20.14;100.00;101739.25;5040317;28;20486;-54
2022/07/05 14:34:33;;;;;;;1.00;0.20;;;;;;;20.41;100.00;101738.94;5024854;28;20037;-62
2022/07/05 14:37:26;;;;;;;0.35;0.32;;;;;;;20.23;100.00;101737.88;5055818;28;20486;-52
2022/07/05 14:40:18;;;;;;;0.90;0.10;;;;;;;19.96;100.00;101742.75;5045780;28;20499;-53
2022/07/05 14:43:11;;;;;;;0.38;0.00;;;;;;;20.05;100.00;101752.16;5040789;28;20383;-57
2022/07/05 14:46:07;;;;;;;0.10;0.00;;;;;;;20.07;100.00;101754.63;5062713;28;20045;-60
2022/07/05 14:49:00;;;;;;;1.20;0.73;;;;;;;20.41;100.00;101749.69;5019615;28;20044;-55
2022/07/05 14:51:52;;;;;;;0.05;0.00;;;;;;;20.31;100.00;101749.41;5038824;28;20417;-59
2022/07/05 14:54:46;;;;;;;0.00;0.00;;;;;;;20.46;100.00;101755.22;5042257;28;20052;-57
2022/07/05 14:57:39;;;;;;;0.57;0.15;;;;;;;20.60;100.00;101761.31;5041371;28;20032;-51
2022/07/05 15:00:32;;;;;;;0.00;0.00;;;;;;;20.55;100.00;101750.38;5057528;28;20146;-60
2022/07/05 15:03:25;;;;;;;0.65;0.00;;;;;;;20.80;100.00;101759.16;5059367;28;20044;-56